createdAt,value
2018-05-15T00:00:00.262Z,0
2018-05-15T00:01:01.661Z,0
2018-05-15T00:02:03.051Z,0
2018-05-15T00:03:04.446Z,0
2018-05-15T00:04:05.840Z,0
2018-05-15T00:05:07.239Z,0
2018-05-15T00:06:08.631Z,0
2018-05-15T00:07:10.023Z,0
2018-05-15T00:08:11.422Z,0
2018-05-15T00:09:12.828Z,0
2018-05-15T00:10:14.223Z,0
2018-05-15T00:11:15.621Z,0
2018-05-15T00:12:17.023Z,0
2018-05-15T00:13:18.417Z,0
2018-05-15T00:14:19.809Z,0
2018-05-15T00:15:21.213Z,0
2018-05-15T00:16:22.601Z,0
2018-05-15T00:17:23.995Z,0
2018-05-15T00:18:25.388Z,0
2018-05-15T00:19:26.786Z,0
2018-05-15T00:20:28.181Z,0
2018-05-15T00:21:29.574Z,0
2018-05-15T00:22:30.970Z,0
2018-05-15T00:23:32.386Z,0
2018-05-15T00:24:33.779Z,0
2018-05-15T00:25:35.175Z,0
2018-05-15T00:26:36.583Z,0
2018-05-15T00:27:37.958Z,0
2018-05-15T00:28:39.352Z,0
2018-05-15T00:29:40.765Z,0
2018-05-15T00:30:42.156Z,0
2018-05-15T00:31:43.555Z,0
2018-05-15T00:32:44.951Z,0
2018-05-15T00:33:46.356Z,0
2018-05-15T00:34:47.742Z,0
2018-05-15T00:35:49.139Z,0
2018-05-15T00:36:50.534Z,0
2018-05-15T00:37:51.928Z,0
2018-05-15T00:38:53.323Z,0
2018-05-15T00:39:54.718Z,0
2018-05-15T00:40:56.113Z,0
2018-05-15T00:41:57.500Z,0
2018-05-15T00:42:58.892Z,0
2018-05-15T00:44:00.291Z,0
2018-05-15T00:45:01.690Z,0
2018-05-15T00:46:03.082Z,0
2018-05-15T00:47:04.492Z,0
2018-05-15T00:48:05.883Z,0
2018-05-15T00:49:07.279Z,0
2018-05-15T00:50:08.668Z,0
2018-05-15T00:51:10.062Z,0
2018-05-15T00:52:11.458Z,0
2018-05-15T00:53:12.849Z,0
2018-05-15T00:54:14.243Z,0
2018-05-15T00:55:15.639Z,0
2018-05-15T00:56:17.035Z,0
2018-05-15T00:57:18.424Z,0
2018-05-15T00:58:19.821Z,0
2018-05-15T00:59:21.211Z,0
2018-05-15T01:00:22.612Z,0
2018-05-15T01:01:24.005Z,0
2018-05-15T01:02:25.401Z,0
2018-05-15T01:03:26.793Z,0
2018-05-15T01:04:28.192Z,0
2018-05-15T01:05:29.584Z,0
2018-05-15T01:06:30.977Z,0
2018-05-15T01:07:32.372Z,0
2018-05-15T01:08:33.766Z,0
2018-05-15T01:09:35.168Z,0
2018-05-15T01:10:36.557Z,0
2018-05-15T01:11:37.946Z,0
2018-05-15T01:12:39.341Z,0
2018-05-15T01:13:40.733Z,0
2018-05-15T01:14:42.128Z,0
2018-05-15T01:15:43.523Z,0
2018-05-15T01:16:44.918Z,0
2018-05-15T01:17:46.387Z,0
2018-05-15T01:18:47.808Z,0
2018-05-15T01:19:49.201Z,0
2018-05-15T01:20:50.596Z,0
2018-05-15T01:21:51.995Z,0
2018-05-15T01:22:53.393Z,0
2018-05-15T01:23:54.785Z,0
2018-05-15T01:24:56.182Z,0
2018-05-15T01:25:57.570Z,0
2018-05-15T01:26:58.967Z,0
2018-05-15T01:28:00.364Z,0
2018-05-15T01:29:01.763Z,0
2018-05-15T01:30:03.154Z,0
2018-05-15T01:31:04.546Z,0
2018-05-15T01:32:05.942Z,0
2018-05-15T01:33:07.333Z,0
2018-05-15T01:34:08.726Z,0
2018-05-15T01:35:10.114Z,0
2018-05-15T01:36:11.513Z,0
2018-05-15T01:37:12.911Z,0
2018-05-15T01:38:14.303Z,0
2018-05-15T01:39:15.703Z,0
2018-05-15T01:40:17.095Z,0
2018-05-15T01:41:18.486Z,0
2018-05-15T01:42:19.880Z,0
2018-05-15T01:43:21.276Z,0
2018-05-15T01:44:22.668Z,0
2018-05-15T01:45:24.064Z,0
2018-05-15T01:46:25.454Z,0
2018-05-15T01:47:26.853Z,0
2018-05-15T01:48:28.230Z,0
2018-05-15T01:49:29.622Z,0
2018-05-15T01:50:31.014Z,0
2018-05-15T01:51:32.412Z,0
2018-05-15T01:52:33.806Z,0
2018-05-15T01:53:35.211Z,0
2018-05-15T01:54:36.593Z,0
2018-05-15T01:55:37.984Z,0
2018-05-15T01:56:39.379Z,0
2018-05-15T01:57:40.777Z,0
2018-05-15T01:58:42.176Z,0
2018-05-15T01:59:43.563Z,0
2018-05-15T02:00:44.964Z,0
2018-05-15T02:01:46.358Z,0
2018-05-15T02:02:47.769Z,0
2018-05-15T02:03:49.166Z,0
2018-05-15T02:04:50.556Z,0
2018-05-15T02:05:52.035Z,0
2018-05-15T02:06:53.447Z,0
2018-05-15T02:07:54.842Z,0
2018-05-15T02:08:56.232Z,0
2018-05-15T02:09:57.637Z,0
2018-05-15T02:10:59.030Z,0
2018-05-15T02:12:00.422Z,0
2018-05-15T02:13:01.819Z,0
2018-05-15T02:14:03.212Z,0
2018-05-15T02:15:04.604Z,0
2018-05-15T02:16:06.001Z,0
2018-05-15T02:17:07.386Z,0
2018-05-15T02:18:08.778Z,0
2018-05-15T02:19:10.171Z,0
2018-05-15T02:20:11.567Z,0
2018-05-15T02:21:12.960Z,0
2018-05-15T02:22:14.354Z,0
2018-05-15T02:23:15.743Z,0
2018-05-15T02:24:17.144Z,0
2018-05-15T02:25:18.536Z,0
2018-05-15T02:26:19.932Z,0
2018-05-15T02:27:21.326Z,0
2018-05-15T02:28:22.726Z,0
2018-05-15T02:29:24.118Z,0
2018-05-15T02:30:25.585Z,0
2018-05-15T02:31:26.913Z,0
2018-05-15T02:32:28.307Z,0
2018-05-15T02:33:29.704Z,0
2018-05-15T02:34:31.097Z,0
2018-05-15T02:35:32.487Z,0
2018-05-15T02:36:33.885Z,0
2018-05-15T02:37:35.278Z,0
2018-05-15T02:38:36.670Z,0
2018-05-15T02:39:38.063Z,0
2018-05-15T02:40:39.456Z,0
2018-05-15T02:41:40.929Z,0
2018-05-15T02:42:42.242Z,0
2018-05-15T02:43:43.631Z,0
2018-05-15T02:44:45.023Z,0
2018-05-15T02:45:46.415Z,0
2018-05-15T02:46:47.819Z,0
2018-05-15T02:47:49.202Z,0
2018-05-15T02:48:50.599Z,0
2018-05-15T02:49:51.993Z,0
2018-05-15T02:50:53.386Z,0
2018-05-15T02:51:54.775Z,0
2018-05-15T02:52:56.169Z,0
2018-05-15T02:53:57.619Z,0
2018-05-15T02:54:59.013Z,0
2018-05-15T02:56:00.422Z,0
2018-05-15T02:57:01.825Z,0
2018-05-15T02:58:03.219Z,0
2018-05-15T02:59:04.607Z,0
2018-05-15T03:00:06.001Z,0
2018-05-15T03:01:07.465Z,0
2018-05-15T03:02:08.801Z,0
2018-05-15T03:03:10.188Z,0
2018-05-15T03:04:11.584Z,0
2018-05-15T03:05:12.982Z,0
2018-05-15T03:06:14.369Z,0
2018-05-15T03:07:15.768Z,0
2018-05-15T03:08:17.157Z,0
2018-05-15T03:09:18.548Z,0
2018-05-15T03:10:19.938Z,0
2018-05-15T03:11:21.334Z,0
2018-05-15T03:12:22.729Z,0
2018-05-15T03:13:24.118Z,0
2018-05-15T03:14:25.510Z,0
2018-05-15T03:15:26.902Z,0
2018-05-15T03:16:28.294Z,4
2018-05-15T03:17:29.688Z,4
2018-05-15T03:18:31.086Z,0
2018-05-15T03:19:32.489Z,0
2018-05-15T03:20:33.883Z,0
2018-05-15T03:21:35.268Z,4
2018-05-15T03:22:36.666Z,4
2018-05-15T03:23:38.051Z,0
2018-05-15T03:24:39.445Z,4
2018-05-15T03:25:40.837Z,4
2018-05-15T03:26:42.238Z,4
2018-05-15T03:27:43.622Z,4
2018-05-15T03:28:45.016Z,4
2018-05-15T03:29:46.407Z,8
2018-05-15T03:30:47.799Z,8
2018-05-15T03:31:49.191Z,8
2018-05-15T03:32:50.584Z,8
2018-05-15T03:33:51.977Z,12
2018-05-15T03:34:53.367Z,12
2018-05-15T03:35:54.762Z,12
2018-05-15T03:36:56.152Z,16
2018-05-15T03:37:57.544Z,16
2018-05-15T03:38:58.942Z,16
2018-05-15T03:40:00.331Z,20
2018-05-15T03:41:01.728Z,20
2018-05-15T03:42:03.122Z,24
2018-05-15T03:43:04.595Z,28
2018-05-15T03:44:05.985Z,32
2018-05-15T03:45:07.391Z,32
2018-05-15T03:46:08.780Z,32
2018-05-15T03:47:10.175Z,40
2018-05-15T03:48:11.569Z,40
2018-05-15T03:49:12.958Z,44
2018-05-15T03:50:14.348Z,44
2018-05-15T03:51:15.740Z,52
2018-05-15T03:52:17.133Z,52
2018-05-15T03:53:18.527Z,56
2018-05-15T03:54:19.926Z,56
2018-05-15T03:55:21.322Z,68
2018-05-15T03:56:22.720Z,72
2018-05-15T03:57:24.112Z,76
2018-05-15T03:58:25.503Z,84
2018-05-15T03:59:26.909Z,84
2018-05-15T04:00:28.301Z,88
2018-05-15T04:01:29.699Z,88
2018-05-15T04:02:31.095Z,96
2018-05-15T04:03:32.491Z,100
2018-05-15T04:04:33.890Z,104
2018-05-15T04:05:35.281Z,108
2018-05-15T04:06:36.679Z,108
2018-05-15T04:07:38.074Z,112
2018-05-15T04:08:39.534Z,124
2018-05-15T04:09:40.881Z,132
2018-05-15T04:10:42.271Z,136
2018-05-15T04:11:43.663Z,156
2018-05-15T04:12:45.060Z,156
2018-05-15T04:13:46.455Z,156
2018-05-15T04:14:47.849Z,160
2018-05-15T04:15:49.243Z,164
2018-05-15T04:16:51.550Z,180
2018-05-15T04:17:52.945Z,192
2018-05-15T04:18:54.345Z,200
2018-05-15T04:19:55.738Z,212
2018-05-15T04:20:57.131Z,224
2018-05-15T04:21:58.525Z,232
2018-05-15T04:22:59.924Z,244
2018-05-15T04:24:01.348Z,260
2018-05-15T04:25:02.725Z,280
2018-05-15T04:26:04.120Z,272
2018-05-15T04:27:05.517Z,276
2018-05-15T04:28:06.953Z,284
2018-05-15T04:29:08.309Z,280
2018-05-15T04:30:09.758Z,288
2018-05-15T04:31:11.181Z,312
2018-05-15T04:32:12.575Z,344
2018-05-15T04:33:13.972Z,360
2018-05-15T04:34:15.363Z,360
2018-05-15T04:35:16.780Z,396
2018-05-15T04:36:18.157Z,412
2018-05-15T04:37:19.557Z,404
2018-05-15T04:38:20.951Z,412
2018-05-15T04:39:22.359Z,412
2018-05-15T04:40:23.749Z,440
2018-05-15T04:41:25.146Z,460
2018-05-15T04:42:26.543Z,500
2018-05-15T04:43:27.976Z,464
2018-05-15T04:44:29.336Z,448
2018-05-15T04:45:30.735Z,448
2018-05-15T04:46:32.159Z,448
2018-05-15T04:47:33.571Z,468
2018-05-15T04:48:34.970Z,520
2018-05-15T04:49:36.367Z,572
2018-05-15T04:50:37.776Z,556
2018-05-15T04:51:39.170Z,536
2018-05-15T04:52:40.569Z,568
2018-05-15T04:53:41.963Z,612
2018-05-15T04:54:43.358Z,640
2018-05-15T04:55:44.801Z,644
2018-05-15T04:56:46.153Z,636
2018-05-15T04:57:47.557Z,604
2018-05-15T04:58:48.957Z,584
2018-05-15T04:59:50.365Z,544
2018-05-15T05:00:51.757Z,520
2018-05-15T05:01:53.200Z,524
2018-05-15T05:02:54.551Z,560
2018-05-15T05:03:55.950Z,592
2018-05-15T05:04:57.354Z,588
2018-05-15T05:05:58.757Z,612
2018-05-15T05:07:00.146Z,616
2018-05-15T05:08:01.542Z,708
2018-05-15T05:09:02.939Z,752
2018-05-15T05:10:04.339Z,768
2018-05-15T05:11:05.734Z,792
2018-05-15T05:12:07.131Z,796
2018-05-15T05:13:08.526Z,856
2018-05-15T05:14:09.921Z,988
2018-05-15T05:15:11.316Z,1000
2018-05-15T05:16:12.709Z,1060
2018-05-15T05:17:14.116Z,1040
2018-05-15T05:18:15.619Z,1076
2018-05-15T05:19:17.041Z,932
2018-05-15T05:20:18.441Z,1012
2018-05-15T05:21:19.832Z,996
2018-05-15T05:22:21.232Z,1080
2018-05-15T05:23:22.626Z,980
2018-05-15T05:24:24.023Z,916
2018-05-15T05:25:25.425Z,1072
2018-05-15T05:26:26.822Z,1024
2018-05-15T05:27:28.223Z,1032
2018-05-15T05:28:29.613Z,1048
2018-05-15T05:29:31.854Z,1004
2018-05-15T05:30:33.256Z,1048
2018-05-15T05:31:34.649Z,1116
2018-05-15T05:32:36.047Z,1064
2018-05-15T05:33:37.442Z,1124
2018-05-15T05:34:38.917Z,1088
2018-05-15T05:35:40.313Z,1032
2018-05-15T05:36:41.711Z,1056
2018-05-15T05:37:43.108Z,1060
2018-05-15T05:38:44.506Z,1128
2018-05-15T05:39:45.904Z,1204
2018-05-15T05:40:47.302Z,1392
2018-05-15T05:41:48.701Z,1244
2018-05-15T05:42:50.095Z,1520
2018-05-15T05:43:51.488Z,1312
2018-05-15T05:44:52.885Z,1344
2018-05-15T05:45:54.279Z,1176
2018-05-15T05:46:55.677Z,1220
2018-05-15T05:47:57.077Z,1300
2018-05-15T05:48:58.472Z,1500
2018-05-15T05:49:59.870Z,1540
2018-05-15T05:51:01.260Z,1536
2018-05-15T05:52:02.762Z,1192
2018-05-15T05:53:04.066Z,1352
2018-05-15T05:54:05.461Z,1508
2018-05-15T05:55:06.859Z,1448
2018-05-15T05:56:08.257Z,1488
2018-05-15T05:57:09.650Z,1344
2018-05-15T05:58:11.047Z,1548
2018-05-15T05:59:12.459Z,1564
2018-05-15T06:00:13.836Z,1484
2018-05-15T06:01:15.245Z,1672
2018-05-15T06:02:16.651Z,2020
2018-05-15T06:03:18.048Z,2380
2018-05-15T06:04:19.472Z,2148
2018-05-15T06:05:20.925Z,2012
2018-05-15T06:06:22.320Z,2024
2018-05-15T06:07:23.731Z,1708
2018-05-15T06:08:25.114Z,1864
2018-05-15T06:09:26.513Z,2212
2018-05-15T06:10:27.931Z,2236
2018-05-15T06:11:29.338Z,2196
2018-05-15T06:12:30.741Z,2272
2018-05-15T06:13:32.139Z,2780
2018-05-15T06:14:33.539Z,2552
2018-05-15T06:15:34.937Z,2420
2018-05-15T06:16:36.336Z,2260
2018-05-15T06:17:37.744Z,2404
2018-05-15T06:18:39.137Z,2228
2018-05-15T06:19:40.532Z,2148
2018-05-15T06:20:41.969Z,2160
2018-05-15T06:21:43.323Z,2088
2018-05-15T06:22:44.727Z,2504
2018-05-15T06:23:46.120Z,2156
2018-05-15T06:24:47.520Z,1892
2018-05-15T06:25:48.917Z,1736
2018-05-15T06:26:50.316Z,1824
2018-05-15T06:27:51.712Z,2140
2018-05-15T06:28:53.117Z,2404
2018-05-15T06:29:54.517Z,2324
2018-05-15T06:30:55.922Z,2476
2018-05-15T06:31:57.324Z,2660
2018-05-15T06:32:58.716Z,2620
2018-05-15T06:34:00.113Z,2256
2018-05-15T06:35:01.510Z,2244
2018-05-15T06:36:02.911Z,2084
2018-05-15T06:37:04.310Z,2088
2018-05-15T06:38:05.709Z,2136
2018-05-15T06:39:07.111Z,2096
2018-05-15T06:40:08.507Z,2200
2018-05-15T06:41:09.905Z,2424
2018-05-15T06:42:11.299Z,2588
2018-05-15T06:43:12.699Z,2288
2018-05-15T06:44:14.099Z,2044
2018-05-15T06:45:15.491Z,1936
2018-05-15T06:46:16.889Z,1956
2018-05-15T06:47:18.290Z,1896
2018-05-15T06:48:19.691Z,1912
2018-05-15T06:49:21.090Z,2020
2018-05-15T06:50:22.505Z,2048
2018-05-15T06:51:23.949Z,2032
2018-05-15T06:52:25.382Z,1940
2018-05-15T06:53:26.782Z,1996
2018-05-15T06:54:28.179Z,1984
2018-05-15T06:55:29.582Z,2024
2018-05-15T06:56:30.981Z,2052
2018-05-15T06:57:32.379Z,2044
2018-05-15T06:58:33.798Z,2048
2018-05-15T06:59:35.198Z,2056
2018-05-15T07:00:36.603Z,2084
2018-05-15T07:01:38.006Z,2108
2018-05-15T07:02:39.404Z,2140
2018-05-15T07:03:40.806Z,2112
2018-05-15T07:04:42.198Z,2192
2018-05-15T07:05:43.595Z,2264
2018-05-15T07:06:44.993Z,2280
2018-05-15T07:07:46.453Z,2296
2018-05-15T07:08:47.789Z,2304
2018-05-15T07:09:49.181Z,2296
2018-05-15T07:10:50.580Z,2344
2018-05-15T07:11:51.974Z,2440
2018-05-15T07:12:53.377Z,2440
2018-05-15T07:13:54.776Z,2476
2018-05-15T07:14:56.173Z,2484
2018-05-15T07:15:57.582Z,2544
2018-05-15T07:16:58.981Z,2580
2018-05-15T07:18:00.382Z,2588
2018-05-15T07:19:01.773Z,2600
2018-05-15T07:20:03.171Z,2664
2018-05-15T07:21:04.569Z,2664
2018-05-15T07:22:05.973Z,2716
2018-05-15T07:23:07.370Z,2708
2018-05-15T07:24:08.764Z,2728
2018-05-15T07:25:10.163Z,2808
2018-05-15T07:26:11.564Z,2820
2018-05-15T07:27:12.963Z,2852
2018-05-15T07:28:14.364Z,2888
2018-05-15T07:29:15.763Z,2816
2018-05-15T07:30:17.184Z,2892
2018-05-15T07:31:18.580Z,2872
2018-05-15T07:32:19.977Z,2988
2018-05-15T07:33:21.375Z,2980
2018-05-15T07:34:22.785Z,3000
2018-05-15T07:35:24.183Z,3028
2018-05-15T07:36:25.637Z,3140
2018-05-15T07:37:27.064Z,3224
2018-05-15T07:38:28.463Z,3260
2018-05-15T07:39:29.906Z,3296
2018-05-15T07:40:31.306Z,3268
2018-05-15T07:41:32.705Z,3312
2018-05-15T07:42:34.106Z,3224
2018-05-15T07:43:35.505Z,3224
2018-05-15T07:44:36.903Z,3364
2018-05-15T07:45:38.299Z,2328
2018-05-15T07:46:39.701Z,2492
2018-05-15T07:47:41.105Z,2800
2018-05-15T07:48:42.502Z,2820
2018-05-15T07:49:43.902Z,3236
2018-05-15T07:50:45.307Z,3012
2018-05-15T07:51:46.701Z,3108
2018-05-15T07:52:48.099Z,4332
2018-05-15T07:53:49.495Z,2920
2018-05-15T07:54:50.895Z,2892
2018-05-15T07:55:52.297Z,2888
2018-05-15T07:56:53.695Z,2968
2018-05-15T07:57:55.097Z,3052
2018-05-15T07:58:56.492Z,3348
2018-05-15T07:59:57.913Z,3172
2018-05-15T08:00:59.308Z,3120
2018-05-15T08:02:00.775Z,3372
2018-05-15T08:03:02.110Z,3276
2018-05-15T08:04:03.516Z,3288
2018-05-15T08:05:04.909Z,4252
2018-05-15T08:06:06.307Z,3376
2018-05-15T08:07:07.708Z,4204
2018-05-15T08:08:09.106Z,3328
2018-05-15T08:09:10.517Z,4684
2018-05-15T08:10:11.903Z,3508
2018-05-15T08:11:13.303Z,4688
2018-05-15T08:12:14.706Z,3632
2018-05-15T08:13:16.107Z,4252
2018-05-15T08:14:17.507Z,4236
2018-05-15T08:15:18.904Z,3708
2018-05-15T08:16:20.381Z,5004
2018-05-15T08:17:21.700Z,4984
2018-05-15T08:18:23.100Z,5032
2018-05-15T08:19:24.504Z,5008
2018-05-15T08:20:25.909Z,4888
2018-05-15T08:21:27.295Z,4856
2018-05-15T08:22:28.700Z,4832
2018-05-15T08:23:30.097Z,4836
2018-05-15T08:24:31.505Z,4820
2018-05-15T08:25:32.916Z,4860
2018-05-15T08:26:34.326Z,4800
2018-05-15T08:27:35.715Z,4908
2018-05-15T08:28:37.126Z,4940
2018-05-15T08:29:38.530Z,5080
2018-05-15T08:30:39.926Z,5180
2018-05-15T08:31:41.327Z,5168
2018-05-15T08:32:42.733Z,5252
2018-05-15T08:33:44.134Z,5236
2018-05-15T08:34:45.533Z,5232
2018-05-15T08:35:46.933Z,5208
2018-05-15T08:36:48.329Z,4952
2018-05-15T08:37:49.732Z,5108
2018-05-15T08:38:51.127Z,5220
2018-05-15T08:39:52.536Z,5324
2018-05-15T08:40:53.933Z,5408
2018-05-15T08:41:55.331Z,5244
2018-05-15T08:42:56.729Z,5480
2018-05-15T08:43:58.134Z,5364
2018-05-15T08:44:59.536Z,5308
2018-05-15T08:46:00.937Z,5360
2018-05-15T08:47:02.338Z,5296
2018-05-15T08:48:03.738Z,5136
2018-05-15T08:49:05.140Z,5156
2018-05-15T08:50:06.537Z,5284
2018-05-15T08:51:07.942Z,5284
2018-05-15T08:52:09.343Z,5376
2018-05-15T08:53:10.753Z,5440
2018-05-15T08:54:12.181Z,5452
2018-05-15T08:55:13.583Z,5484
2018-05-15T08:56:14.983Z,5472
2018-05-15T08:57:16.382Z,5424
2018-05-15T08:58:17.787Z,5468
2018-05-15T08:59:19.186Z,5500
2018-05-15T09:00:20.590Z,5456
2018-05-15T09:01:21.993Z,5592
2018-05-15T09:02:23.398Z,5692
2018-05-15T09:03:24.794Z,5748
2018-05-15T09:04:26.201Z,5240
2018-05-15T09:05:27.609Z,5592
2018-05-15T09:06:29.043Z,6228
2018-05-15T09:07:30.512Z,6312
2018-05-15T09:08:31.913Z,6308
2018-05-15T09:09:33.311Z,6096
2018-05-15T09:10:34.711Z,5928
2018-05-15T09:11:36.110Z,5704
2018-05-15T09:12:37.529Z,5548
2018-05-15T09:13:38.904Z,5368
2018-05-15T09:14:40.307Z,5592
2018-05-15T09:15:41.709Z,5056
2018-05-15T09:16:43.116Z,5596
2018-05-15T09:17:44.513Z,5672
2018-05-15T09:18:45.920Z,5144
2018-05-15T09:19:47.322Z,5416
2018-05-15T09:20:48.721Z,5932
2018-05-15T09:21:50.128Z,5680
2018-05-15T09:22:51.533Z,5560
2018-05-15T09:23:52.933Z,5516
2018-05-15T09:24:54.333Z,5100
2018-05-15T09:25:55.741Z,6416
2018-05-15T09:26:57.144Z,6696
2018-05-15T09:27:58.549Z,6716
2018-05-15T09:28:59.959Z,6632
2018-05-15T09:30:01.361Z,6228
2018-05-15T09:31:02.788Z,5824
2018-05-15T09:32:04.190Z,5940
2018-05-15T09:33:05.589Z,5484
2018-05-15T09:34:06.989Z,6224
2018-05-15T09:35:08.391Z,6112
2018-05-15T09:36:09.800Z,6748
2018-05-15T09:37:11.200Z,7088
2018-05-15T09:38:12.651Z,6676
2018-05-15T09:39:14.057Z,6608
2018-05-15T09:40:15.460Z,6884
2018-05-15T09:41:16.859Z,7264
2018-05-15T09:42:18.258Z,6880
2018-05-15T09:43:19.661Z,6860
2018-05-15T09:44:21.065Z,6780
2018-05-15T09:45:22.469Z,6464
2018-05-15T09:46:23.874Z,7088
2018-05-15T09:47:25.272Z,7360
2018-05-15T09:48:26.672Z,7516
2018-05-15T09:49:28.073Z,7120
2018-05-15T09:50:29.479Z,7112
2018-05-15T09:51:30.969Z,7736
2018-05-15T09:52:32.385Z,7564
2018-05-15T09:53:33.783Z,7824
2018-05-15T09:54:35.185Z,6456
2018-05-15T09:55:36.585Z,7272
2018-05-15T09:56:38.006Z,8164
2018-05-15T09:57:39.407Z,7812
2018-05-15T09:58:40.812Z,8508
2018-05-15T09:59:42.223Z,8416
2018-05-15T10:00:43.615Z,8520
2018-05-15T10:01:45.016Z,8400
2018-05-15T10:02:46.417Z,8716
2018-05-15T10:03:47.825Z,8800
2018-05-15T10:04:49.228Z,8852
2018-05-15T10:05:50.626Z,9020
2018-05-15T10:06:52.036Z,9232
2018-05-15T10:07:53.486Z,9200
2018-05-15T10:08:54.845Z,9296
2018-05-15T10:09:56.245Z,9448
2018-05-15T10:10:57.648Z,9524
2018-05-15T10:11:59.054Z,8680
2018-05-15T10:13:00.455Z,9132
2018-05-15T10:14:01.860Z,9996
2018-05-15T10:15:03.265Z,10088
2018-05-15T10:16:04.669Z,10172
2018-05-15T10:17:06.079Z,10304
2018-05-15T10:18:07.481Z,10416
2018-05-15T10:19:08.885Z,10520
2018-05-15T10:20:10.289Z,10608
2018-05-15T10:21:11.701Z,10600
2018-05-15T10:22:13.103Z,10396
2018-05-15T10:23:14.505Z,10992
2018-05-15T10:24:15.908Z,10020
2018-05-15T10:25:17.315Z,11464
2018-05-15T10:26:18.730Z,11316
2018-05-15T10:27:20.126Z,11716
2018-05-15T10:28:21.532Z,11660
2018-05-15T10:29:22.935Z,11832
2018-05-15T10:30:24.336Z,11356
2018-05-15T10:31:25.739Z,11436
2018-05-15T10:32:27.148Z,10932
2018-05-15T10:33:28.545Z,11092
2018-05-15T10:34:29.953Z,11744
2018-05-15T10:35:31.360Z,12676
2018-05-15T10:36:32.824Z,12012
2018-05-15T10:37:34.299Z,12596
2018-05-15T10:38:35.704Z,11936
2018-05-15T10:39:37.125Z,7644
2018-05-15T10:40:38.526Z,13416
2018-05-15T10:41:39.932Z,13936
2018-05-15T10:42:41.337Z,14148
2018-05-15T10:43:42.737Z,15084
2018-05-15T10:44:44.141Z,15516
2018-05-15T10:45:45.555Z,15916
2018-05-15T10:46:46.956Z,16800
2018-05-15T10:47:48.361Z,17920
2018-05-15T10:48:49.767Z,19136
2018-05-15T10:49:51.171Z,20448
2018-05-15T10:50:52.665Z,22880
2018-05-15T10:51:53.980Z,23936
2018-05-15T10:52:55.384Z,21952
2018-05-15T10:53:56.790Z,22976
2018-05-15T10:54:58.213Z,25568
2018-05-15T10:55:59.619Z,21760
2018-05-15T10:57:01.024Z,21984
2018-05-15T10:58:02.429Z,24512
2018-05-15T10:59:03.836Z,33216
2018-05-15T11:00:05.238Z,34784
2018-05-15T11:01:06.643Z,33664
2018-05-15T11:02:08.060Z,31424
2018-05-15T11:03:09.468Z,32256
2018-05-15T11:04:10.875Z,26208
2018-05-15T11:05:12.302Z,29536
2018-05-15T11:06:13.714Z,25088
2018-05-15T11:07:15.113Z,32704
2018-05-15T11:08:16.524Z,30368
2018-05-15T11:09:17.941Z,30848
2018-05-15T11:10:19.336Z,29920
2018-05-15T11:11:20.746Z,27616
2018-05-15T11:12:22.151Z,26208
2018-05-15T11:13:23.558Z,25568
2018-05-15T11:14:24.968Z,24928
2018-05-15T11:15:26.374Z,25472
2018-05-15T11:16:27.789Z,25312
2018-05-15T11:17:29.205Z,26464
2018-05-15T11:18:30.616Z,25728
2018-05-15T11:19:32.043Z,24448
2018-05-15T11:20:33.447Z,25664
2018-05-15T11:21:34.856Z,25216
2018-05-15T11:22:36.395Z,25088
2018-05-15T11:23:37.804Z,24928
2018-05-15T11:24:39.292Z,24896
2018-05-15T11:25:40.628Z,24704
2018-05-15T11:26:42.038Z,24000
2018-05-15T11:27:43.460Z,24096
2018-05-15T11:28:44.932Z,24256
2018-05-15T11:29:46.330Z,24480
2018-05-15T11:30:47.824Z,24384
2018-05-15T11:31:49.227Z,24416
2018-05-15T11:32:50.631Z,23296
2018-05-15T11:33:52.037Z,23360
2018-05-15T11:34:53.443Z,23904
2018-05-15T11:35:54.870Z,23456
2018-05-15T11:36:56.254Z,23392
2018-05-15T11:37:57.665Z,10064
2018-05-15T11:38:59.070Z,6488
2018-05-15T11:40:00.481Z,7112
2018-05-15T11:41:01.883Z,7456
2018-05-15T11:42:03.290Z,7648
2018-05-15T11:43:04.695Z,12596
2018-05-15T11:44:06.098Z,6792
2018-05-15T11:45:07.509Z,6044
2018-05-15T11:46:08.915Z,5308
2018-05-15T11:47:10.322Z,4592
2018-05-15T11:48:12.054Z,4152
2018-05-15T11:49:13.710Z,3952
2018-05-15T11:50:15.238Z,3672
2018-05-15T11:51:16.593Z,3404
2018-05-15T11:52:18.059Z,3256
2018-05-15T11:53:18.979Z,3272
2018-05-15T11:54:20.158Z,3284
2018-05-15T11:55:21.561Z,3340
2018-05-15T11:56:23.055Z,3524
2018-05-15T11:57:24.373Z,4080
2018-05-15T11:58:25.780Z,3832
2018-05-15T11:59:27.189Z,3516
2018-05-15T12:00:28.597Z,3224
2018-05-15T12:01:30.005Z,3208
2018-05-15T12:02:31.471Z,3216
2018-05-15T12:03:32.810Z,3284
2018-05-15T12:04:34.214Z,3008
2018-05-15T12:05:35.620Z,2948
2018-05-15T12:06:37.047Z,2916
2018-05-15T12:07:38.498Z,3084
2018-05-15T12:08:39.933Z,3600
2018-05-15T12:09:41.333Z,4492
2018-05-15T12:10:42.828Z,10720
2018-05-15T12:11:44.138Z,9864
2018-05-15T12:12:45.552Z,13340
2018-05-15T12:13:46.951Z,20320
2018-05-15T12:14:48.356Z,21088
2018-05-15T12:15:49.760Z,21408
2018-05-15T12:16:51.170Z,14956
2018-05-15T12:17:52.565Z,22528
2018-05-15T12:18:53.973Z,21280
2018-05-15T12:19:55.376Z,14204
2018-05-15T12:20:56.782Z,10664
2018-05-15T12:21:58.188Z,7916
2018-05-15T12:22:59.595Z,7808
2018-05-15T12:24:00.995Z,7496
2018-05-15T12:25:02.402Z,7092
2018-05-15T12:26:03.799Z,6656
2018-05-15T12:27:05.213Z,6256
2018-05-15T12:28:06.624Z,6148
2018-05-15T12:29:08.019Z,6276
2018-05-15T12:30:09.428Z,6588
2018-05-15T12:31:10.830Z,6792
2018-05-15T12:32:12.238Z,17056
2018-05-15T12:33:13.644Z,6560
2018-05-15T12:34:15.045Z,6324
2018-05-15T12:35:16.448Z,6516
2018-05-15T12:36:17.880Z,5956
2018-05-15T12:37:19.285Z,6128
2018-05-15T12:38:20.682Z,5708
2018-05-15T12:39:22.086Z,5780
2018-05-15T12:40:23.493Z,6152
2018-05-15T12:41:24.981Z,6468
2018-05-15T12:42:26.302Z,10376
2018-05-15T12:43:27.716Z,6992
2018-05-15T12:44:29.122Z,24224
2018-05-15T12:45:30.527Z,25472
2018-05-15T12:46:31.933Z,25984
2018-05-15T12:47:33.333Z,15400
2018-05-15T12:48:34.769Z,9584
2018-05-15T12:49:36.144Z,6704
2018-05-15T12:50:37.551Z,6248
2018-05-15T12:51:38.956Z,6112
2018-05-15T12:52:40.360Z,6084
2018-05-15T12:53:41.877Z,5976
2018-05-15T12:54:43.315Z,10180
2018-05-15T12:55:44.729Z,5508
2018-05-15T12:56:46.131Z,5172
2018-05-15T12:57:47.543Z,5012
2018-05-15T12:58:48.951Z,4820
2018-05-15T12:59:50.356Z,4796
2018-05-15T13:00:51.759Z,4664
2018-05-15T13:01:53.162Z,4572
2018-05-15T13:02:54.566Z,4424
2018-05-15T13:03:55.968Z,4360
2018-05-15T13:04:57.376Z,4092
2018-05-15T13:05:58.779Z,3992
2018-05-15T13:07:00.181Z,3960
2018-05-15T13:08:01.600Z,3960
2018-05-15T13:09:02.991Z,4012
2018-05-15T13:10:04.400Z,4160
2018-05-15T13:11:05.801Z,4340
2018-05-15T13:12:07.205Z,4476
2018-05-15T13:13:08.611Z,4720
2018-05-15T13:14:10.011Z,5144
2018-05-15T13:15:11.414Z,6428
2018-05-15T13:16:12.821Z,21920
2018-05-15T13:17:14.287Z,22080
2018-05-15T13:18:15.631Z,22912
2018-05-15T13:19:17.066Z,22816
2018-05-15T13:20:18.473Z,22336
2018-05-15T13:21:19.878Z,22240
2018-05-15T13:22:21.279Z,22816
2018-05-15T13:23:22.689Z,21952
2018-05-15T13:24:24.216Z,22784
2018-05-15T13:25:25.506Z,23104
2018-05-15T13:26:26.912Z,23040
2018-05-15T13:27:28.318Z,23584
2018-05-15T13:28:29.723Z,23968
2018-05-15T13:29:31.140Z,23424
2018-05-15T13:30:32.531Z,23232
2018-05-15T13:31:33.937Z,14700
2018-05-15T13:32:35.348Z,6488
2018-05-15T13:33:36.753Z,4556
2018-05-15T13:34:38.165Z,4148
2018-05-15T13:35:39.573Z,3800
2018-05-15T13:36:40.978Z,3580
2018-05-15T13:37:42.382Z,3500
2018-05-15T13:38:43.787Z,3324
2018-05-15T13:39:45.257Z,3268
2018-05-15T13:40:46.666Z,3212
2018-05-15T13:41:48.076Z,3212
2018-05-15T13:42:49.479Z,3332
2018-05-15T13:43:50.882Z,3428
2018-05-15T13:44:52.292Z,3644
2018-05-15T13:45:53.701Z,3740
2018-05-15T13:46:55.103Z,4040
2018-05-15T13:47:56.512Z,4348
2018-05-15T13:48:57.916Z,9636
2018-05-15T13:49:59.323Z,5520
2018-05-15T13:51:00.724Z,7320
2018-05-15T13:52:02.158Z,8936
2018-05-15T13:53:03.563Z,5732
2018-05-15T13:54:04.970Z,16928
2018-05-15T13:55:06.376Z,16416
2018-05-15T13:56:07.780Z,6056
2018-05-15T13:57:09.179Z,5936
2018-05-15T13:58:10.589Z,5500